Aérodrome :
LOGIN :

S'inscrire | Disclaimer

   EN    FR    IT 

 










Légende :    VFR   VFR Marginal   IFR   IFR Intensif   IFR Très Intensif
Visi : 
Plafond : 
>= 8 km
>= 3000ft
5 à 8 km
1000 à 3000 ft
1500m à 5 km
500 à 1000 ft
800 à 1500m
200 à 500 ft
< 800m
< 200 ft
Symboles :   Orages  Brouillard  Fortes neiges  Fortes précipitations  Vent > 20 kt
SIGMETs :   Divers  Orages  Givrage  Turbulence  Onde Orograph.  Cendres Volcan.






- Altitude de l'aérodrome : 796 ft
- Code IATA : SYT


LFLN - Saint-Yan

DERNIER METAR :
  • 230130Z AUTO 07006KT 8000 OVC008 13/12 Q1015

METARs EXPIRÉS :
  • 230100Z AUTO 07006KT 9000 OVC009 13/13 Q1015
  • 230030Z AUTO 06005KT 6000 OVC010 13/13 Q1015
  • 230000Z AUTO 08003KT 4200 BR OVC006 14/13 Q1016
  • 222330Z AUTO 07003KT 4100 BR OVC006 14/13 Q1016
  • 222300Z AUTO 10004KT 6000 OVC007 14/13 Q1016

TAF TAF LFLN
Valide du 22 à 18h jusqu'au 23 à 03h UTC


221700Z 2218/2303 VRB03KT 9999 BKN018
TEMPO 2218/2303 3000 BR BKN007
PROB40
TEMPO 2220/2303 0500 FG VV///



MET'MAP, la Météo Aéronautique d'un coup d'oeil ! - Copyright ORBIFLY Décembre 2007 - Disclaimer

ORBIFLY MET'MAP TEAM :

Programmation & Développement : Alexandra Zaïnal
Conception & Développement : Baudouin d'Aumeries
Co-Programmation & Développement : Marc-Olivier Méhu
Soutien technique & logistique : Manuel Goepfert

Contact : metmap@orbifly.com




SOURCES & CREDITS :

   NOAA